46分钟前
跑道 逆风 侧风 长度
8/26 3 千吨 1.200 米
METAR ETNT 202020Z 36004KT 9999 SCT012 BKN220 14/12 Q1010 BLU+

METAR定义 | 嵌入

METAR Leer-Papenburg Airport

Leer-Papenburg Airport是Leer,德国中的小机场。 机场有{a,plural,=1{一条跑道} other{#跑道}}: 8/26 (1.200 米)

Leer-Papenburg Airport最近未发布观察结果。相反,我们向您显示34 km的报告Wittmundhafen Air Base。 该报告是针对2021年6月20日 22:20, 当地时间进行的。

机场观察

风来自北 (360°)方向,速度为4 千吨。

可见度为10 公里 或者更多。

有疏云,零星散落的云朵在1.200 ft的高度 和 碎云在22.000 ft的高度。 破损或更高的上限为22.000 ft。

温度和风寒是14 °C。 露点为12 °C,相对湿度为88%。 海平面上的气压为1010 压力 (QNH)。

白天

今天,太阳从05:02升起,在22:01降落。 这适用于Leer-Papenburg Airport,世界夏令时可能有所不同。 当地时间与世界标准时间之间的时差为+2 小时。 夏令时目前正在进行中。

历史数据

您会帮助我们保持Metar-Taf.com正常运行吗?
您的贡献有助于网站的进一步开发并支付费用。

没有更多广告

您是捐款5美元还是更多?然后,我们将永远不会再向您展示广告,这是我们永恒的感谢!
捐赠前先登录

您是否要在网站上Leer-Papenburg Airport飞行的天气? 阅读更多   自由!